Warning: Javascript must be enabled to use all the features on this page!


Page Loading - Please Wait...

* We've detected you're using a mobile device. Find our Next Generation Station Page here.
Click to hideNews Bulletins

Peak Streamflow for the Nation

USGS 04212100 Grand River near Painesville OH

Lake County, Ohio
Hydrologic Unit Code 04110004
Latitude  41°43'08", Longitude  81°13'41" NAD27
Drainage area 685  square miles
Contributing drainage area 685  square miles
Gage datum 595.51 feet above NAVD88
Output formats
Table
Graph
Tab-separated file
peakfq (watstore) format
Reselect output format
Water
Year
Date Gage
Height
(feet)
Stream-
flow
(cfs)
1975 1975-02-25 9.93 10,600
1976 1976-02-17 12.55 15,500
1977 1977-02-25 10.52 11,700
1978 1977-12-15 11.302 13,200
1979 1979-03-04 11.81 14,200
1980 1979-12-25 13.16 16,900
1981 1981-02-19 12.01 16,300
1982 1982-03-13 10.73 13,500
1983 1982-12-16 7.57 7,220
1984 1984-03-21 9.032 9,910
1985 1985-02-24 12.11 16,500
1986 1986-06-11 13.07 18,700
1987 1987-04-06 10.532 13,000
1988 1988-02-21 7.46 7,050
1989 1989-05-26 12.93 18,400
1990 1990-02-16 10.06 12,000
1991 1990-12-30 10.93 13,900
1992 1992-07-17 6.582 5,680
1993 1993-03-25 10.24 12,400
1994 1994-02-20 8.98 9,810
1995 1995-01-16 11.54 15,300
1996 1996-01-19 11.66 15,500
1997 1997-06-03 11.33 14,800
1998 1998-01-09 10.34 12,600
1999 1999-01-24 8.82 9,430
2000 2000-04-08 8.88 9,550
2001 2001-02-10 9.59 11,000
2002 2002-05-30 9.91 11,700
2003 2003-06-14 9.122 10,000
2004 2004-05-22 10.10 12,100
2005 2005-01-12 10.60 13,200
2006 2006-07-28 19.35 35,000
2007 2007-03-15 11.15 12,600
2008 2008-02-06 13.70 18,500
2009 2009-02-12 11.32 13,300
2010 2010-03-12 10.38 10,900
2011 2011-02-28 13.25 19,400
2012 2011-12-06 9.32 8,760
2013 2012-10-30 13.27 19,500
2014 2013-12-22 12.07 15,500
2015 2015-06-28 10.682 11,500
2016 2016-02-25 8.13 6,650
2017 2017-01-12 11.36 13,400
2018 2018-01-12 10.40 10,900
2019 2019-07-20 10.12 10,300
2020 2020-03-29 10.54 11,200
2021 2020-10-21 10.91 12,100
?
  Peak Gage-Height Qualification Codes.